sensor_id;sensor_type;location;lat;lon;timestamp;temperature;humidity
22526;DHT22;11429;50.842;4.386;2023-03-01T00:01:43;3.70;99.90
22526;DHT22;11429;50.842;4.386;2023-03-01T00:04:12;3.60;99.90
22526;DHT22;11429;50.842;4.386;2023-03-01T00:06:38;3.50;99.90
22526;DHT22;11429;50.842;4.386;2023-03-01T00:09:05;3.60;99.90
22526;DHT22;11429;50.842;4.386;2023-03-01T00:11:31;3.20;99.90
22526;DHT22;11429;50.842;4.386;2023-03-01T00:14:01;3.10;99.90
22526;DHT22;11429;50.842;4.386;2023-03-01T00:16:39;3.20;99.90
22526;DHT22;11429;50.842;4.386;2023-03-01T00:19:09;3.50;99.90
22526;DHT22;11429;50.842;4.386;2023-03-01T00:21:37;3.60;99.90
22526;DHT22;11429;50.842;4.386;2023-03-01T00:24:03;3.50;99.90
22526;DHT22;11429;50.842;4.386;2023-03-01T00:26:30;3.30;99.90
22526;DHT22;11429;50.842;4.386;2023-03-01T00:28:58;3.20;99.90
22526;DHT22;11429;50.842;4.386;2023-03-01T00:31:28;3.00;99.90
22526;DHT22;11429;50.842;4.386;2023-03-01T00:33:56;3.20;99.90
22526;DHT22;11429;50.842;4.386;2023-03-01T00:36:24;3.30;99.90
22526;DHT22;11429;50.842;4.386;2023-03-01T00:38:50;3.10;99.90
22526;DHT22;11429;50.842;4.386;2023-03-01T00:41:18;3.00;99.90
22526;DHT22;11429;50.842;4.386;2023-03-01T00:43:45;3.00;99.90
22526;DHT22;11429;50.842;4.386;2023-03-01T00:46:17;3.00;99.90
22526;DHT22;11429;50.842;4.386;2023-03-01T00:48:44;3.00;99.90
22526;DHT22;11429;50.842;4.386;2023-03-01T00:51:15;3.00;99.90
22526;DHT22;11429;50.842;4.386;2023-03-01T00:53:47;3.20;99.90
22526;DHT22;11429;50.842;4.386;2023-03-01T00:56:21;3.30;99.90
22526;DHT22;11429;50.842;4.386;2023-03-01T00:58:49;3.40;99.90
22526;DHT22;11429;50.842;4.386;2023-03-01T01:01:19;3.20;99.90
22526;DHT22;11429;50.842;4.386;2023-03-01T01:03:53;3.20;99.90
22526;DHT22;11429;50.842;4.386;2023-03-01T01:07:04;3.10;99.90
22526;DHT22;11429;50.842;4.386;2023-03-01T01:09:23;3.10;99.90
22526;DHT22;11429;50.842;4.386;2023-03-01T01:11:55;2.90;99.90
22526;DHT22;11429;50.842;4.386;2023-03-01T01:14:21;2.60;99.90
22526;DHT22;11429;50.842;4.386;2023-03-01T01:16:47;2.70;99.90
22526;DHT22;11429;50.842;4.386;2023-03-01T01:19:14;2.80;99.90
22526;DHT22;11429;50.842;4.386;2023-03-01T01:21:42;2.80;99.90
22526;DHT22;11429;50.842;4.386;2023-03-01T01:24:09;3.00;99.90
22526;DHT22;11429;50.842;4.386;2023-03-01T01:26:34;3.10;99.90
22526;DHT22;11429;50.842;4.386;2023-03-01T01:29:02;3.00;99.90
22526;DHT22;11429;50.842;4.386;2023-03-01T01:31:35;2.90;99.90
22526;DHT22;11429;50.842;4.386;2023-03-01T01:34:05;2.90;99.90
22526;DHT22;11429;50.842;4.386;2023-03-01T01:36:35;3.00;99.90
22526;DHT22;11429;50.842;4.386;2023-03-01T01:39:01;2.80;99.90
22526;DHT22;11429;50.842;4.386;2023-03-01T01:41:28;3.00;99.90
22526;DHT22;11429;50.842;4.386;2023-03-01T01:44:16;3.00;99.90
22526;DHT22;11429;50.842;4.386;2023-03-01T01:47:03;2.60;99.90
22526;DHT22;11429;50.842;4.386;2023-03-01T01:49:47;2.60;99.90
22526;DHT22;11429;50.842;4.386;2023-03-01T01:52:38;2.70;99.90
22526;DHT22;11429;50.842;4.386;2023-03-01T01:55:07;2.80;99.90
22526;DHT22;11429;50.842;4.386;2023-03-01T01:57:39;2.80;99.90
22526;DHT22;11429;50.842;4.386;2023-03-01T02:00:13;2.40;99.90
22526;DHT22;11429;50.842;4.386;2023-03-01T02:02:40;2.30;99.90
22526;DHT22;11429;50.842;4.386;2023-03-01T02:05:36;2.50;99.90
22526;DHT22;11429;50.842;4.386;2023-03-01T02:08:00;2.60;99.90
22526;DHT22;11429;50.842;4.386;2023-03-01T02:10:28;2.80;99.90
22526;DHT22;11429;50.842;4.386;2023-03-01T02:12:55;2.70;99.90
22526;DHT22;11429;50.842;4.386;2023-03-01T02:15:23;2.50;99.90
22526;DHT22;11429;50.842;4.386;2023-03-01T02:17:49;2.40;99.90
22526;DHT22;11429;50.842;4.386;2023-03-01T02:20:27;2.40;99.90
22526;DHT22;11429;50.842;4.386;2023-03-01T02:22:58;2.40;99.90
22526;DHT22;11429;50.842;4.386;2023-03-01T02:30:45;2.40;99.90
22526;DHT22;11429;50.842;4.386;2023-03-01T02:33:33;2.30;99.90
22526;DHT22;11429;50.842;4.386;2023-03-01T02:36:03;2.50;99.90
22526;DHT22;11429;50.842;4.386;2023-03-01T02:38:32;2.40;99.90
22526;DHT22;11429;50.842;4.386;2023-03-01T02:41:00;2.40;99.90
22526;DHT22;11429;50.842;4.386;2023-03-01T02:43:34;2.20;99.90
22526;DHT22;11429;50.842;4.386;2023-03-01T02:46:21;2.20;99.90
22526;DHT22;11429;50.842;4.386;2023-03-01T02:48:58;2.10;99.90
22526;DHT22;11429;50.842;4.386;2023-03-01T02:51:52;2.30;99.90
22526;DHT22;11429;50.842;4.386;2023-03-01T02:54:40;2.30;99.90
22526;DHT22;11429;50.842;4.386;2023-03-01T02:57:06;2.40;99.90
22526;DHT22;11429;50.842;4.386;2023-03-01T02:59:35;2.40;99.90
22526;DHT22;11429;50.842;4.386;2023-03-01T03:02:17;2.60;99.90
22526;DHT22;11429;50.842;4.386;2023-03-01T03:04:46;2.50;99.90
22526;DHT22;11429;50.842;4.386;2023-03-01T03:07:12;2.20;99.90
22526;DHT22;11429;50.842;4.386;2023-03-01T03:09:38;2.30;99.90
22526;DHT22;11429;50.842;4.386;2023-03-01T03:12:04;2.40;99.90
22526;DHT22;11429;50.842;4.386;2023-03-01T03:14:29;2.30;99.90
22526;DHT22;11429;50.842;4.386;2023-03-01T03:16:55;2.10;99.90
22526;DHT22;11429;50.842;4.386;2023-03-01T03:19:21;2.20;99.90
22526;DHT22;11429;50.842;4.386;2023-03-01T03:21:47;2.20;99.90
22526;DHT22;11429;50.842;4.386;2023-03-01T03:24:13;2.00;99.90
22526;DHT22;11429;50.842;4.386;2023-03-01T03:26:38;2.20;99.90
22526;DHT22;11429;50.842;4.386;2023-03-01T03:29:04;2.10;99.90
22526;DHT22;11429;50.842;4.386;2023-03-01T03:31:30;2.20;99.90
22526;DHT22;11429;50.842;4.386;2023-03-01T03:33:55;2.30;99.90
22526;DHT22;11429;50.842;4.386;2023-03-01T03:36:23;2.30;99.90
22526;DHT22;11429;50.842;4.386;2023-03-01T03:38:50;2.20;99.90
22526;DHT22;11429;50.842;4.386;2023-03-01T03:41:16;2.10;99.90
22526;DHT22;11429;50.842;4.386;2023-03-01T03:43:43;2.20;99.90
22526;DHT22;11429;50.842;4.386;2023-03-01T03:46:10;2.00;99.90
22526;DHT22;11429;50.842;4.386;2023-03-01T03:48:42;2.10;99.90
22526;DHT22;11429;50.842;4.386;2023-03-01T03:51:17;2.10;99.90
22526;DHT22;11429;50.842;4.386;2023-03-01T03:53:44;1.80;99.90
22526;DHT22;11429;50.842;4.386;2023-03-01T03:56:10;2.00;99.90
22526;DHT22;11429;50.842;4.386;2023-03-01T03:58:36;1.90;99.90
22526;DHT22;11429;50.842;4.386;2023-03-01T04:01:02;1.90;99.90
22526;DHT22;11429;50.842;4.386;2023-03-01T04:03:30;1.90;99.90
22526;DHT22;11429;50.842;4.386;2023-03-01T04:05:58;1.90;99.90
22526;DHT22;11429;50.842;4.386;2023-03-01T04:08:25;1.90;99.90
22526;DHT22;11429;50.842;4.386;2023-03-01T04:10:55;2.00;99.90
22526;DHT22;11429;50.842;4.386;2023-03-01T04:13:22;1.90;99.90
22526;DHT22;11429;50.842;4.386;2023-03-01T04:15:52;1.90;99.90
22526;DHT22;11429;50.842;4.386;2023-03-01T04:18:20;1.80;99.90
22526;DHT22;11429;50.842;4.386;2023-03-01T04:20:46;1.70;99.90
22526;DHT22;11429;50.842;4.386;2023-03-01T04:23:14;1.50;99.90
22526;DHT22;11429;50.842;4.386;2023-03-01T04:25:54;1.50;99.90
22526;DHT22;11429;50.842;4.386;2023-03-01T04:30:51;1.50;99.90
22526;DHT22;11429;50.842;4.386;2023-03-01T04:33:18;1.20;99.90
22526;DHT22;11429;50.842;4.386;2023-03-01T04:35:44;1.30;99.90
22526;DHT22;11429;50.842;4.386;2023-03-01T04:38:10;1.50;99.90
22526;DHT22;11429;50.842;4.386;2023-03-01T04:40:36;1.50;99.90
22526;DHT22;11429;50.842;4.386;2023-03-01T04:43:02;1.70;99.90
22526;DHT22;11429;50.842;4.386;2023-03-01T04:45:28;1.50;99.90
22526;DHT22;11429;50.842;4.386;2023-03-01T04:47:53;1.40;99.90
22526;DHT22;11429;50.842;4.386;2023-03-01T04:50:20;1.60;99.90
22526;DHT22;11429;50.842;4.386;2023-03-01T04:52:46;1.60;99.90
22526;DHT22;11429;50.842;4.386;2023-03-01T04:55:13;1.40;99.90
22526;DHT22;11429;50.842;4.386;2023-03-01T04:57:39;1.50;99.90
22526;DHT22;11429;50.842;4.386;2023-03-01T05:00:08;1.50;99.90
22526;DHT22;11429;50.842;4.386;2023-03-01T05:02:54;1.40;99.90
22526;DHT22;11429;50.842;4.386;2023-03-01T05:05:25;1.50;99.90
22526;DHT22;11429;50.842;4.386;2023-03-01T05:07:53;1.50;99.90
22526;DHT22;11429;50.842;4.386;2023-03-01T05:10:20;1.50;99.90
22526;DHT22;11429;50.842;4.386;2023-03-01T05:12:45;1.30;99.90
22526;DHT22;11429;50.842;4.386;2023-03-01T05:15:12;1.30;99.90
22526;DHT22;11429;50.842;4.386;2023-03-01T05:17:38;1.10;99.90
22526;DHT22;11429;50.842;4.386;2023-03-01T05:20:04;1.10;99.90
22526;DHT22;11429;50.842;4.386;2023-03-01T05:22:34;1.00;99.90
22526;DHT22;11429;50.842;4.386;2023-03-01T05:25:00;1.10;99.90
22526;DHT22;11429;50.842;4.386;2023-03-01T05:27:25;1.20;99.90
22526;DHT22;11429;50.842;4.386;2023-03-01T05:29:51;1.40;99.90
22526;DHT22;11429;50.842;4.386;2023-03-01T05:32:17;1.40;99.90
22526;DHT22;11429;50.842;4.386;2023-03-01T05:34:42;1.20;99.90
22526;DHT22;11429;50.842;4.386;2023-03-01T05:37:09;1.10;99.90
22526;DHT22;11429;50.842;4.386;2023-03-01T05:39:35;0.90;99.90
22526;DHT22;11429;50.842;4.386;2023-03-01T05:42:01;0.90;99.90
22526;DHT22;11429;50.842;4.386;2023-03-01T05:44:28;1.00;99.90
22526;DHT22;11429;50.842;4.386;2023-03-01T05:46:54;1.10;99.90
22526;DHT22;11429;50.842;4.386;2023-03-01T05:49:20;0.80;99.90
22526;DHT22;11429;50.842;4.386;2023-03-01T05:51:51;0.60;99.90
22526;DHT22;11429;50.842;4.386;2023-03-01T05:54:17;0.70;99.90
22526;DHT22;11429;50.842;4.386;2023-03-01T05:56:43;1.10;99.90
22526;DHT22;11429;50.842;4.386;2023-03-01T05:59:09;1.20;99.90
22526;DHT22;11429;50.842;4.386;2023-03-01T06:01:36;1.10;99.90
22526;DHT22;11429;50.842;4.386;2023-03-01T06:04:03;1.20;99.90
22526;DHT22;11429;50.842;4.386;2023-03-01T06:06:29;1.10;99.90
22526;DHT22;11429;50.842;4.386;2023-03-01T06:08:55;1.20;99.90
22526;DHT22;11429;50.842;4.386;2023-03-01T06:11:21;1.20;99.90
22526;DHT22;11429;50.842;4.386;2023-03-01T06:13:47;1.20;99.90
22526;DHT22;11429;50.842;4.386;2023-03-01T06:16:13;1.20;99.90
22526;DHT22;11429;50.842;4.386;2023-03-01T06:18:39;0.80;99.90
22526;DHT22;11429;50.842;4.386;2023-03-01T06:21:06;1.00;99.90
22526;DHT22;11429;50.842;4.386;2023-03-01T06:23:33;1.20;99.90
22526;DHT22;11429;50.842;4.386;2023-03-01T06:25:59;1.10;99.90
22526;DHT22;11429;50.842;4.386;2023-03-01T06:28:25;1.00;99.90
22526;DHT22;11429;50.842;4.386;2023-03-01T06:30:51;1.10;99.90
22526;DHT22;11429;50.842;4.386;2023-03-01T06:33:19;1.00;99.90
22526;DHT22;11429;50.842;4.386;2023-03-01T06:35:50;1.10;99.90
22526;DHT22;11429;50.842;4.386;2023-03-01T06:38:16;1.10;99.90
22526;DHT22;11429;50.842;4.386;2023-03-01T06:40:44;1.00;99.90
22526;DHT22;11429;50.842;4.386;2023-03-01T06:43:11;1.00;99.90
22526;DHT22;11429;50.842;4.386;2023-03-01T06:45:38;1.10;99.90
22526;DHT22;11429;50.842;4.386;2023-03-01T06:48:04;1.30;99.90
22526;DHT22;11429;50.842;4.386;2023-03-01T06:50:30;1.30;99.90
22526;DHT22;11429;50.842;4.386;2023-03-01T06:52:57;1.00;99.90
22526;DHT22;11429;50.842;4.386;2023-03-01T06:55:23;0.90;99.90
22526;DHT22;11429;50.842;4.386;2023-03-01T06:57:49;0.80;99.90
22526;DHT22;11429;50.842;4.386;2023-03-01T07:00:19;0.70;99.90
22526;DHT22;11429;50.842;4.386;2023-03-01T07:02:45;0.80;99.90
22526;DHT22;11429;50.842;4.386;2023-03-01T07:05:11;1.00;99.90
22526;DHT22;11429;50.842;4.386;2023-03-01T07:07:37;1.00;99.90
22526;DHT22;11429;50.842;4.386;2023-03-01T07:10:03;1.30;99.90
22526;DHT22;11429;50.842;4.386;2023-03-01T07:12:29;1.20;99.90
22526;DHT22;11429;50.842;4.386;2023-03-01T07:14:55;1.30;99.90
22526;DHT22;11429;50.842;4.386;2023-03-01T07:17:21;1.40;99.90
22526;DHT22;11429;50.842;4.386;2023-03-01T07:19:47;1.60;99.90
22526;DHT22;11429;50.842;4.386;2023-03-01T07:22:12;1.50;99.90
22526;DHT22;11429;50.842;4.386;2023-03-01T07:24:38;1.50;99.90
22526;DHT22;11429;50.842;4.386;2023-03-01T07:27:04;1.70;99.90
22526;DHT22;11429;50.842;4.386;2023-03-01T07:29:29;1.70;99.90
22526;DHT22;11429;50.842;4.386;2023-03-01T07:31:56;1.60;99.90
22526;DHT22;11429;50.842;4.386;2023-03-01T07:34:22;1.80;99.90
22526;DHT22;11429;50.842;4.386;2023-03-01T07:36:48;1.90;99.90
22526;DHT22;11429;50.842;4.386;2023-03-01T07:39:13;2.00;99.90
22526;DHT22;11429;50.842;4.386;2023-03-01T07:41:39;2.00;99.90
22526;DHT22;11429;50.842;4.386;2023-03-01T07:44:05;2.10;99.90
22526;DHT22;11429;50.842;4.386;2023-03-01T07:46:30;2.30;99.90
22526;DHT22;11429;50.842;4.386;2023-03-01T07:48:57;2.10;99.90
22526;DHT22;11429;50.842;4.386;2023-03-01T07:51:23;2.20;99.90
22526;DHT22;11429;50.842;4.386;2023-03-01T07:53:49;2.30;99.90
22526;DHT22;11429;50.842;4.386;2023-03-01T07:56:16;2.00;99.90
22526;DHT22;11429;50.842;4.386;2023-03-01T07:58:44;2.30;99.90
22526;DHT22;11429;50.842;4.386;2023-03-01T08:01:12;2.40;99.90
22526;DHT22;11429;50.842;4.386;2023-03-01T08:03:39;2.70;99.90
22526;DHT22;11429;50.842;4.386;2023-03-01T08:06:07;2.80;99.90
22526;DHT22;11429;50.842;4.386;2023-03-01T08:08:34;3.00;99.90
22526;DHT22;11429;50.842;4.386;2023-03-01T08:11:00;3.20;99.90
22526;DHT22;11429;50.842;4.386;2023-03-01T08:13:27;3.10;99.90
22526;DHT22;11429;50.842;4.386;2023-03-01T08:15:52;2.90;99.90
22526;DHT22;11429;50.842;4.386;2023-03-01T08:18:20;2.90;99.90
22526;DHT22;11429;50.842;4.386;2023-03-01T08:20:46;2.60;99.90
22526;DHT22;11429;50.842;4.386;2023-03-01T08:23:12;2.60;99.90
22526;DHT22;11429;50.842;4.386;2023-03-01T08:25:38;2.90;99.90
22526;DHT22;11429;50.842;4.386;2023-03-01T08:28:04;3.20;99.90
22526;DHT22;11429;50.842;4.386;2023-03-01T08:30:30;3.20;99.90
22526;DHT22;11429;50.842;4.386;2023-03-01T08:32:56;3.00;99.90
22526;DHT22;11429;50.842;4.386;2023-03-01T08:35:22;3.00;99.90
22526;DHT22;11429;50.842;4.386;2023-03-01T08:37:48;3.30;99.90
22526;DHT22;11429;50.842;4.386;2023-03-01T08:40:14;3.30;99.90
22526;DHT22;11429;50.842;4.386;2023-03-01T08:42:40;3.40;99.90
22526;DHT22;11429;50.842;4.386;2023-03-01T08:45:07;3.20;99.90
22526;DHT22;11429;50.842;4.386;2023-03-01T08:47:33;3.40;99.90
22526;DHT22;11429;50.842;4.386;2023-03-01T08:50:00;3.50;99.90
22526;DHT22;11429;50.842;4.386;2023-03-01T08:52:26;3.40;99.90
22526;DHT22;11429;50.842;4.386;2023-03-01T08:54:52;3.60;99.90
22526;DHT22;11429;50.842;4.386;2023-03-01T08:57:18;3.40;99.90
22526;DHT22;11429;50.842;4.386;2023-03-01T08:59:44;3.60;99.90
22526;DHT22;11429;50.842;4.386;2023-03-01T09:02:12;4.00;99.90
22526;DHT22;11429;50.842;4.386;2023-03-01T09:04:38;4.10;99.90
22526;DHT22;11429;50.842;4.386;2023-03-01T09:07:07;4.20;99.90
22526;DHT22;11429;50.842;4.386;2023-03-01T09:09:33;4.40;99.90
22526;DHT22;11429;50.842;4.386;2023-03-01T09:11:59;4.30;99.90
22526;DHT22;11429;50.842;4.386;2023-03-01T09:14:24;4.10;99.90
22526;DHT22;11429;50.842;4.386;2023-03-01T09:16:50;3.90;99.90
22526;DHT22;11429;50.842;4.386;2023-03-01T09:19:16;4.00;99.90
22526;DHT22;11429;50.842;4.386;2023-03-01T09:21:42;4.80;99.90
22526;DHT22;11429;50.842;4.386;2023-03-01T09:24:18;4.80;99.90
22526;DHT22;11429;50.842;4.386;2023-03-01T09:26:43;4.40;99.90
22526;DHT22;11429;50.842;4.386;2023-03-01T09:29:11;4.30;99.90
22526;DHT22;11429;50.842;4.386;2023-03-01T09:31:38;4.60;99.90
22526;DHT22;11429;50.842;4.386;2023-03-01T09:34:05;4.90;99.90
22526;DHT22;11429;50.842;4.386;2023-03-01T09:36:37;5.50;99.90
22526;DHT22;11429;50.842;4.386;2023-03-01T09:39:04;5.50;99.90
22526;DHT22;11429;50.842;4.386;2023-03-01T09:46:58;5.20;99.90
22526;DHT22;11429;50.842;4.386;2023-03-01T09:49:35;5.00;99.90
22526;DHT22;11429;50.842;4.386;2023-03-01T09:54:53;5.60;99.90
22526;DHT22;11429;50.842;4.386;2023-03-01T10:00:16;6.80;99.90
22526;DHT22;11429;50.842;4.386;2023-03-01T10:03:43;6.90;99.90
22526;DHT22;11429;50.842;4.386;2023-03-01T10:10:51;8.00;99.90
22526;DHT22;11429;50.842;4.386;2023-03-01T10:13:19;8.40;99.90
22526;DHT22;11429;50.842;4.386;2023-03-01T10:16:26;9.10;99.90
22526;DHT22;11429;50.842;4.386;2023-03-01T10:18:53;10.30;99.90
22526;DHT22;11429;50.842;4.386;2023-03-01T10:21:23;11.20;99.90
22526;DHT22;11429;50.842;4.386;2023-03-01T10:23:52;11.40;99.90
22526;DHT22;11429;50.842;4.386;2023-03-01T10:26:35;11.20;99.90
22526;DHT22;11429;50.842;4.386;2023-03-01T10:29:05;11.80;99.90
22526;DHT22;11429;50.842;4.386;2023-03-01T10:31:52;12.70;99.90
22526;DHT22;11429;50.842;4.386;2023-03-01T10:34:25;12.90;99.90
22526;DHT22;11429;50.842;4.386;2023-03-01T10:37:17;13.30;99.90
22526;DHT22;11429;50.842;4.386;2023-03-01T10:40:03;13.70;99.90
22526;DHT22;11429;50.842;4.386;2023-03-01T10:42:39;14.70;99.00
22526;DHT22;11429;50.842;4.386;2023-03-01T10:50:33;12.50;99.90
22526;DHT22;11429;50.842;4.386;2023-03-01T10:53:02;13.30;99.10
22526;DHT22;11429;50.842;4.386;2023-03-01T10:55:36;13.80;98.40
22526;DHT22;11429;50.842;4.386;2023-03-01T11:00:55;13.40;97.90
22526;DHT22;11429;50.842;4.386;2023-03-01T11:03:33;13.40;98.10
22526;DHT22;11429;50.842;4.386;2023-03-01T11:06:05;12.50;98.80
22526;DHT22;11429;50.842;4.386;2023-03-01T11:13:35;12.60;98.10
22526;DHT22;11429;50.842;4.386;2023-03-01T11:16:07;12.90;97.50
22526;DHT22;11429;50.842;4.386;2023-03-01T11:18:35;12.50;97.90
22526;DHT22;11429;50.842;4.386;2023-03-01T11:21:01;13.20;97.00
22526;DHT22;11429;50.842;4.386;2023-03-01T11:23:29;13.10;97.40
22526;DHT22;11429;50.842;4.386;2023-03-01T11:26:01;12.60;97.30
22526;DHT22;11429;50.842;4.386;2023-03-01T11:28:29;12.60;97.20
22526;DHT22;11429;50.842;4.386;2023-03-01T11:31:06;12.60;97.00
22526;DHT22;11429;50.842;4.386;2023-03-01T11:38:50;14.10;95.60
22526;DHT22;11429;50.842;4.386;2023-03-01T11:41:25;13.60;96.30
22526;DHT22;11429;50.842;4.386;2023-03-01T11:44:14;14.00;95.90
22526;DHT22;11429;50.842;4.386;2023-03-01T12:07:05;13.20;95.90
22526;DHT22;11429;50.842;4.386;2023-03-01T12:26:04;11.40;96.70
22526;DHT22;11429;50.842;4.386;2023-03-01T12:51:02;10.00;98.90
22526;DHT22;11429;50.842;4.386;2023-03-01T12:53:34;9.80;98.80
22526;DHT22;11429;50.842;4.386;2023-03-01T12:56:09;9.60;98.90
22526;DHT22;11429;50.842;4.386;2023-03-01T12:58:54;9.20;99.60
22526;DHT22;11429;50.842;4.386;2023-03-01T13:04:44;8.80;99.90
22526;DHT22;11429;50.842;4.386;2023-03-01T13:07:34;9.10;99.90
22526;DHT22;11429;50.842;4.386;2023-03-01T13:17:56;8.70;99.90
22526;DHT22;11429;50.842;4.386;2023-03-01T13:20:45;8.80;99.90
22526;DHT22;11429;50.842;4.386;2023-03-01T13:30:58;8.80;99.90
22526;DHT22;11429;50.842;4.386;2023-03-01T13:35:57;8.30;99.90
22526;DHT22;11429;50.842;4.386;2023-03-01T13:38:46;8.20;99.90
22526;DHT22;11429;50.842;4.386;2023-03-01T13:44:00;7.90;99.90
22526;DHT22;11429;50.842;4.386;2023-03-01T13:46:26;7.90;99.90
22526;DHT22;11429;50.842;4.386;2023-03-01T13:48:54;8.20;99.90
22526;DHT22;11429;50.842;4.386;2023-03-01T13:51:25;8.00;99.90
22526;DHT22;11429;50.842;4.386;2023-03-01T13:53:53;8.20;99.90
22526;DHT22;11429;50.842;4.386;2023-03-01T13:56:28;8.20;99.90
22526;DHT22;11429;50.842;4.386;2023-03-01T13:59:16;8.20;99.90
22526;DHT22;11429;50.842;4.386;2023-03-01T14:01:42;8.30;99.90
22526;DHT22;11429;50.842;4.386;2023-03-01T14:04:27;8.20;99.90
22526;DHT22;11429;50.842;4.386;2023-03-01T14:07:12;8.20;99.90
22526;DHT22;11429;50.842;4.386;2023-03-01T14:09:43;8.30;99.90
22526;DHT22;11429;50.842;4.386;2023-03-01T14:12:39;8.20;99.90
22526;DHT22;11429;50.842;4.386;2023-03-01T14:15:29;8.10;99.90
22526;DHT22;11429;50.842;4.386;2023-03-01T14:20:43;8.30;99.90
22526;DHT22;11429;50.842;4.386;2023-03-01T14:23:22;8.20;99.90
22526;DHT22;11429;50.842;4.386;2023-03-01T14:25:49;8.10;99.90
22526;DHT22;11429;50.842;4.386;2023-03-01T14:28:19;7.90;99.90
22526;DHT22;11429;50.842;4.386;2023-03-01T14:30:48;8.00;99.90
22526;DHT22;11429;50.842;4.386;2023-03-01T14:33:34;8.00;99.90
22526;DHT22;11429;50.842;4.386;2023-03-01T14:38:44;8.10;99.90
22526;DHT22;11429;50.842;4.386;2023-03-01T14:41:15;8.30;99.90
22526;DHT22;11429;50.842;4.386;2023-03-01T14:43:45;8.20;99.90
22526;DHT22;11429;50.842;4.386;2023-03-01T14:46:37;8.20;99.90
22526;DHT22;11429;50.842;4.386;2023-03-01T14:49:10;8.30;99.90
22526;DHT22;11429;50.842;4.386;2023-03-01T14:51:41;8.10;99.90
22526;DHT22;11429;50.842;4.386;2023-03-01T14:54:24;8.20;99.90
22526;DHT22;11429;50.842;4.386;2023-03-01T14:56:52;8.00;99.90
22526;DHT22;11429;50.842;4.386;2023-03-01T14:59:22;8.00;99.90
22526;DHT22;11429;50.842;4.386;2023-03-01T15:01:50;7.80;99.90
22526;DHT22;11429;50.842;4.386;2023-03-01T15:04:16;7.90;99.90
22526;DHT22;11429;50.842;4.386;2023-03-01T15:06:44;8.00;99.90
22526;DHT22;11429;50.842;4.386;2023-03-01T15:09:15;8.20;99.90
22526;DHT22;11429;50.842;4.386;2023-03-01T15:11:44;8.10;99.90
22526;DHT22;11429;50.842;4.386;2023-03-01T15:14:43;8.00;99.90
22526;DHT22;11429;50.842;4.386;2023-03-01T15:17:34;8.00;99.90
22526;DHT22;11429;50.842;4.386;2023-03-01T15:20:04;7.90;99.90
22526;DHT22;11429;50.842;4.386;2023-03-01T15:22:31;8.00;99.90
22526;DHT22;11429;50.842;4.386;2023-03-01T15:24:57;7.90;99.90
22526;DHT22;11429;50.842;4.386;2023-03-01T15:27:25;7.80;99.90
22526;DHT22;11429;50.842;4.386;2023-03-01T15:29:55;7.90;99.90
22526;DHT22;11429;50.842;4.386;2023-03-01T15:32:35;7.70;99.90
22526;DHT22;11429;50.842;4.386;2023-03-01T15:35:41;7.80;99.90
22526;DHT22;11429;50.842;4.386;2023-03-01T15:38:53;7.60;99.90
22526;DHT22;11429;50.842;4.386;2023-03-01T15:41:31;7.70;99.90
22526;DHT22;11429;50.842;4.386;2023-03-01T15:43:59;7.90;99.90
22526;DHT22;11429;50.842;4.386;2023-03-01T15:46:29;7.90;99.90
22526;DHT22;11429;50.842;4.386;2023-03-01T15:48:58;8.00;99.90
22526;DHT22;11429;50.842;4.386;2023-03-01T15:51:33;8.10;99.90
22526;DHT22;11429;50.842;4.386;2023-03-01T15:54:02;8.20;99.90
22526;DHT22;11429;50.842;4.386;2023-03-01T15:56:29;8.00;99.90
22526;DHT22;11429;50.842;4.386;2023-03-01T15:59:01;7.90;99.90
22526;DHT22;11429;50.842;4.386;2023-03-01T16:01:28;7.80;99.90
22526;DHT22;11429;50.842;4.386;2023-03-01T16:03:54;7.60;99.90
22526;DHT22;11429;50.842;4.386;2023-03-01T16:06:20;7.60;99.90
22526;DHT22;11429;50.842;4.386;2023-03-01T16:08:46;7.70;99.90
22526;DHT22;11429;50.842;4.386;2023-03-01T16:11:16;7.80;99.90
22526;DHT22;11429;50.842;4.386;2023-03-01T16:13:43;7.80;99.90
22526;DHT22;11429;50.842;4.386;2023-03-01T16:16:10;7.60;99.90
22526;DHT22;11429;50.842;4.386;2023-03-01T16:18:38;7.60;99.90
22526;DHT22;11429;50.842;4.386;2023-03-01T16:21:04;7.60;99.90
22526;DHT22;11429;50.842;4.386;2023-03-01T16:23:30;7.80;99.90
22526;DHT22;11429;50.842;4.386;2023-03-01T16:25:59;7.60;99.90
22526;DHT22;11429;50.842;4.386;2023-03-01T16:28:25;7.70;99.90
22526;DHT22;11429;50.842;4.386;2023-03-01T16:30:51;7.70;99.90
22526;DHT22;11429;50.842;4.386;2023-03-01T16:33:17;7.50;99.90
22526;DHT22;11429;50.842;4.386;2023-03-01T16:35:43;7.60;99.90
22526;DHT22;11429;50.842;4.386;2023-03-01T16:38:09;7.60;99.90
22526;DHT22;11429;50.842;4.386;2023-03-01T16:40:35;7.60;99.90
22526;DHT22;11429;50.842;4.386;2023-03-01T16:43:01;7.50;99.90
22526;DHT22;11429;50.842;4.386;2023-03-01T16:45:34;7.60;99.90
22526;DHT22;11429;50.842;4.386;2023-03-01T16:48:02;7.40;99.90
22526;DHT22;11429;50.842;4.386;2023-03-01T16:50:27;7.20;99.90
22526;DHT22;11429;50.842;4.386;2023-03-01T16:52:53;7.50;99.90
22526;DHT22;11429;50.842;4.386;2023-03-01T16:55:19;7.30;99.90
22526;DHT22;11429;50.842;4.386;2023-03-01T16:57:45;7.40;99.90
22526;DHT22;11429;50.842;4.386;2023-03-01T17:00:12;7.30;99.90
22526;DHT22;11429;50.842;4.386;2023-03-01T17:02:39;7.40;99.90
22526;DHT22;11429;50.842;4.386;2023-03-01T17:05:05;7.30;99.90
22526;DHT22;11429;50.842;4.386;2023-03-01T17:07:32;7.30;99.90
22526;DHT22;11429;50.842;4.386;2023-03-01T17:10:00;7.00;99.90
22526;DHT22;11429;50.842;4.386;2023-03-01T17:12:26;7.20;99.90
22526;DHT22;11429;50.842;4.386;2023-03-01T17:14:53;7.30;99.90
22526;DHT22;11429;50.842;4.386;2023-03-01T17:17:20;7.10;99.90
22526;DHT22;11429;50.842;4.386;2023-03-01T17:19:46;7.00;99.90
22526;DHT22;11429;50.842;4.386;2023-03-01T17:22:11;7.20;99.90
22526;DHT22;11429;50.842;4.386;2023-03-01T17:24:40;7.40;99.90
22526;DHT22;11429;50.842;4.386;2023-03-01T17:27:10;7.40;99.90
22526;DHT22;11429;50.842;4.386;2023-03-01T17:29:36;7.30;99.90
22526;DHT22;11429;50.842;4.386;2023-03-01T17:32:02;7.40;99.90
22526;DHT22;11429;50.842;4.386;2023-03-01T17:34:31;7.20;99.90
22526;DHT22;11429;50.842;4.386;2023-03-01T17:36:57;7.20;99.90
22526;DHT22;11429;50.842;4.386;2023-03-01T17:39:23;7.20;99.90
22526;DHT22;11429;50.842;4.386;2023-03-01T17:41:56;7.10;99.90
22526;DHT22;11429;50.842;4.386;2023-03-01T17:44:21;6.90;99.90
22526;DHT22;11429;50.842;4.386;2023-03-01T17:46:47;6.80;99.90
22526;DHT22;11429;50.842;4.386;2023-03-01T17:49:13;6.80;99.90
22526;DHT22;11429;50.842;4.386;2023-03-01T17:51:38;6.80;99.90
22526;DHT22;11429;50.842;4.386;2023-03-01T17:54:04;6.70;99.90
22526;DHT22;11429;50.842;4.386;2023-03-01T17:56:30;6.70;99.90
22526;DHT22;11429;50.842;4.386;2023-03-01T17:58:58;6.80;99.90
22526;DHT22;11429;50.842;4.386;2023-03-01T18:01:24;6.60;99.90
22526;DHT22;11429;50.842;4.386;2023-03-01T18:03:51;6.60;99.90
22526;DHT22;11429;50.842;4.386;2023-03-01T18:06:19;6.70;99.90
22526;DHT22;11429;50.842;4.386;2023-03-01T18:08:46;6.60;99.90
22526;DHT22;11429;50.842;4.386;2023-03-01T18:11:13;6.60;99.90
22526;DHT22;11429;50.842;4.386;2023-03-01T18:13:39;6.60;99.90